createdAt,value
2022-08-28T00:00:20.643Z,67.02
2022-08-28T00:02:48.263Z,67.04
2022-08-28T00:05:17.390Z,66.47
2022-08-28T00:07:47.642Z,66.77
2022-08-28T00:10:16.943Z,67.41
2022-08-28T00:12:44.669Z,67.23
2022-08-28T00:15:15.189Z,67.24
2022-08-28T00:17:42.186Z,67.52
2022-08-28T00:20:11.050Z,67.83
2022-08-28T00:22:39.241Z,67.59
2022-08-28T00:25:08.035Z,67.64
2022-08-28T00:27:52.634Z,67.93
2022-08-28T00:30:33.033Z,68.10
2022-08-28T00:33:04.878Z,68.19
2022-08-28T00:35:31.726Z,68.32
2022-08-28T00:37:58.530Z,68.21
2022-08-28T00:40:32.398Z,68.55
2022-08-28T00:43:02.049Z,68.82
2022-08-28T00:45:29.384Z,68.79
2022-08-28T00:47:56.417Z,68.62
2022-08-28T00:50:26.791Z,68.98
2022-08-28T00:52:59.826Z,69.32
2022-08-28T00:55:28.702Z,69.33
2022-08-28T00:58:00.454Z,69.64
2022-08-28T01:00:32.861Z,69.36
2022-08-28T01:03:00.491Z,69.27
2022-08-28T01:05:28.939Z,69.93
2022-08-28T01:07:59.141Z,69.41
2022-08-28T01:10:29.134Z,69.52
2022-08-28T01:12:56.921Z,69.74
2022-08-28T01:15:28.678Z,70.27
2022-08-28T01:18:03.531Z,69.68
2022-08-28T01:20:35.273Z,70.18
2022-08-28T01:23:25.158Z,70.32
2022-08-28T01:25:52.516Z,69.95
2022-08-28T01:28:19.124Z,70.01
2022-08-28T01:30:48.112Z,70.26
2022-08-28T01:33:15.906Z,69.97
2022-08-28T01:35:44.873Z,70.67
2022-08-28T01:38:11.983Z,70.66
2022-08-28T01:40:47.073Z,70.69
2022-08-28T01:43:21.177Z,70.52
2022-08-28T01:45:53.294Z,70.49
2022-08-28T01:48:22.613Z,70.14
2022-08-28T01:50:50.550Z,70.65
2022-08-28T01:53:25.020Z,70.51
2022-08-28T01:55:55.617Z,70.68
2022-08-28T01:58:23.267Z,70.59
2022-08-28T02:00:50.002Z,70.55
2022-08-28T02:03:16.693Z,70.67
2022-08-28T02:05:43.800Z,71.09
2022-08-28T02:08:10.652Z,70.97
2022-08-28T02:10:40.050Z,70.81
2022-08-28T02:13:07.980Z,71.15
2022-08-28T02:15:36.169Z,70.87
2022-08-28T02:18:02.986Z,70.76
2022-08-28T02:20:29.558Z,70.35
2022-08-28T02:22:57.675Z,70.66
2022-08-28T02:25:25.538Z,71.06
2022-08-28T02:27:52.147Z,71.38
2022-08-28T02:30:19.498Z,71.49
2022-08-28T02:32:46.857Z,71.37
2022-08-28T02:35:16.431Z,71.69
2022-08-28T02:37:44.375Z,71.79
2022-08-28T02:40:14.601Z,71.32
2022-08-28T02:42:42.690Z,71.69
2022-08-28T02:45:11.691Z,71.98
2022-08-28T02:47:42.936Z,71.62
2022-08-28T02:50:13.039Z,71.94
2022-08-28T02:52:40.597Z,71.40
2022-08-28T02:55:08.799Z,71.57
2022-08-28T02:57:35.489Z,71.62
2022-08-28T03:00:07.280Z,71.91
2022-08-28T03:02:33.831Z,70.89
2022-08-28T03:05:00.966Z,71.34
2022-08-28T03:07:29.310Z,71.87
2022-08-28T03:09:56.471Z,71.22
2022-08-28T03:12:24.422Z,71.68
2022-08-28T03:14:54.859Z,71.71
2022-08-28T03:17:22.316Z,71.47
2022-08-28T03:19:50.280Z,71.65
2022-08-28T03:22:38.752Z,71.56
2022-08-28T03:25:06.386Z,72.18
2022-08-28T03:27:33.160Z,71.62
2022-08-28T03:29:59.885Z,72.25
2022-08-28T03:32:26.889Z,71.84
2022-08-28T03:34:55.916Z,71.70
2022-08-28T03:37:22.503Z,71.91
2022-08-28T03:39:49.346Z,72.08
2022-08-28T03:42:16.057Z,72.15
2022-08-28T03:44:42.689Z,71.92
2022-08-28T03:47:09.327Z,71.57
2022-08-28T03:49:36.842Z,71.72
2022-08-28T03:52:03.715Z,71.46
2022-08-28T03:54:31.702Z,72.19
2022-08-28T03:56:58.406Z,72.56
2022-08-28T03:59:26.649Z,72.08
2022-08-28T04:01:58.557Z,72.44
2022-08-28T04:04:25.107Z,72.06
2022-08-28T04:06:51.572Z,71.90
2022-08-28T04:09:18.189Z,71.55
2022-08-28T04:11:44.724Z,71.75
2022-08-28T04:14:11.869Z,72.45
2022-08-28T04:16:38.610Z,72.93
2022-08-28T04:19:05.277Z,72.28
2022-08-28T04:21:31.850Z,72.44
2022-08-28T04:23:58.478Z,72.52
2022-08-28T04:26:26.892Z,73.01
2022-08-28T04:28:55.066Z,73.06
2022-08-28T04:31:32.249Z,72.74
2022-08-28T04:34:00.821Z,73.05
2022-08-28T04:36:27.342Z,72.86
2022-08-28T04:38:55.005Z,72.75
2022-08-28T04:41:21.506Z,72.88
2022-08-28T04:43:48.733Z,73.11
2022-08-28T04:46:15.542Z,72.88
2022-08-28T04:48:42.685Z,73.06
2022-08-28T04:51:10.822Z,73.06
2022-08-28T04:53:38.355Z,72.90
2022-08-28T04:56:07.854Z,72.50
2022-08-28T04:58:34.824Z,73.34
2022-08-28T05:01:12.696Z,73.93
2022-08-28T05:03:40.050Z,73.12
2022-08-28T05:06:07.518Z,72.50
2022-08-28T05:08:34.030Z,71.84
2022-08-28T05:11:22.083Z,72.60
2022-08-28T05:14:01.179Z,72.11
2022-08-28T05:16:27.875Z,73.43
2022-08-28T05:18:54.449Z,72.34
2022-08-28T05:21:22.748Z,73.13
2022-08-28T05:23:51.364Z,72.42
2022-08-28T05:26:19.926Z,73.02
2022-08-28T05:28:47.643Z,72.90
2022-08-28T05:31:18.740Z,72.63
2022-08-28T05:33:47.333Z,72.63
2022-08-28T05:36:15.744Z,73.09
2022-08-28T05:38:42.457Z,72.94
2022-08-28T05:41:09.053Z,73.07
2022-08-28T05:43:36.876Z,72.82
2022-08-28T05:46:07.531Z,72.66
2022-08-28T05:48:37.133Z,74.19
2022-08-28T05:51:07.763Z,73.16
2022-08-28T05:53:36.224Z,72.89
2022-08-28T05:56:04.835Z,72.57
2022-08-28T05:58:32.456Z,72.29
2022-08-28T06:01:23.064Z,73.35
2022-08-28T06:03:57.999Z,73.93
2022-08-28T06:06:26.316Z,73.79
2022-08-28T06:08:58.779Z,72.00
2022-08-28T06:11:27.133Z,73.19
2022-08-28T06:14:01.490Z,73.57
2022-08-28T06:16:28.967Z,73.38
2022-08-28T06:18:55.967Z,73.63
2022-08-28T06:21:22.658Z,72.52
2022-08-28T06:23:49.154Z,72.86
2022-08-28T06:26:15.802Z,72.63
2022-08-28T06:28:42.281Z,72.95
2022-08-28T06:31:23.587Z,72.62
2022-08-28T06:33:56.297Z,71.81
2022-08-28T06:36:24.305Z,70.99
2022-08-28T06:38:51.419Z,72.59
2022-08-28T06:41:18.500Z,72.59
2022-08-28T06:43:45.042Z,71.58
2022-08-28T06:46:11.606Z,72.14
2022-08-28T06:48:38.196Z,71.38
2022-08-28T06:51:10.116Z,71.49
2022-08-28T06:53:38.289Z,70.04
2022-08-28T06:56:08.739Z,69.37
2022-08-28T06:58:38.099Z,69.52
2022-08-28T07:01:08.560Z,69.25
2022-08-28T07:03:35.161Z,69.33
2022-08-28T07:06:03.317Z,67.99
2022-08-28T07:08:30.277Z,66.98
2022-08-28T07:10:57.222Z,66.77
2022-08-28T07:13:23.730Z,66.49
2022-08-28T07:15:50.735Z,66.06
2022-08-28T07:18:18.501Z,65.70
2022-08-28T07:20:46.002Z,65.51
2022-08-28T07:23:12.768Z,65.30
2022-08-28T07:25:42.785Z,65.73
2022-08-28T07:28:09.393Z,64.07
2022-08-28T07:30:38.774Z,63.91
2022-08-28T07:33:05.472Z,63.41
2022-08-28T07:35:35.037Z,63.72
2022-08-28T07:38:01.622Z,63.12
2022-08-28T07:40:28.378Z,62.93
2022-08-28T07:43:13.445Z,62.42
2022-08-28T07:45:40.763Z,62.40
2022-08-28T07:48:11.452Z,61.71
2022-08-28T07:50:38.449Z,60.72
2022-08-28T07:53:08.235Z,60.50
2022-08-28T07:55:34.699Z,60.46
2022-08-28T07:58:01.644Z,60.50
2022-08-28T08:00:28.271Z,59.14
2022-08-28T08:02:54.944Z,59.02
2022-08-28T08:05:21.771Z,58.75
2022-08-28T08:07:48.478Z,58.57
2022-08-28T08:10:15.080Z,57.89
2022-08-28T08:12:47.250Z,58.02
2022-08-28T08:15:14.129Z,56.38
2022-08-28T08:17:40.698Z,56.35
2022-08-28T08:20:08.609Z,55.43
2022-08-28T08:22:35.828Z,55.30
2022-08-28T08:25:04.963Z,54.59
2022-08-28T08:27:38.770Z,54.50
2022-08-28T08:30:09.968Z,53.55
2022-08-28T08:32:39.184Z,54.08
2022-08-28T08:35:06.087Z,53.44
2022-08-28T08:37:32.812Z,53.21
2022-08-28T08:39:59.491Z,52.65
2022-08-28T08:42:32.999Z,53.34
2022-08-28T08:45:04.236Z,53.08
2022-08-28T08:47:47.584Z,52.75
2022-08-28T08:50:34.357Z,52.12
2022-08-28T08:53:23.522Z,52.16
2022-08-28T08:55:55.537Z,51.10
2022-08-28T08:58:32.537Z,51.22
2022-08-28T09:01:09.686Z,50.91
2022-08-28T09:04:24.703Z,50.20
2022-08-28T09:07:07.921Z,50.00
2022-08-28T09:09:56.420Z,49.39
2022-08-28T09:12:30.150Z,48.67
2022-08-28T09:15:05.522Z,49.01
2022-08-28T09:17:43.179Z,48.58
2022-08-28T09:20:12.268Z,48.06
2022-08-28T09:22:44.379Z,47.51
2022-08-28T09:25:13.125Z,47.39
2022-08-28T09:27:52.858Z,47.18
2022-08-28T09:30:30.637Z,46.53
2022-08-28T09:33:01.053Z,45.65
2022-08-28T09:35:30.778Z,45.77
2022-08-28T09:38:17.589Z,45.49
2022-08-28T09:41:02.952Z,45.28
2022-08-28T09:43:31.621Z,44.65
2022-08-28T09:46:31.908Z,44.97
2022-08-28T09:49:12.237Z,45.61
2022-08-28T09:51:39.927Z,44.91
2022-08-28T09:54:19.309Z,45.41
2022-08-28T09:56:46.133Z,45.98
2022-08-28T09:59:15.004Z,46.03
2022-08-28T10:01:44.702Z,44.21
2022-08-28T10:04:23.790Z,43.69
2022-08-28T10:07:03.283Z,44.52
2022-08-28T10:09:55.588Z,43.61
2022-08-28T10:12:33.634Z,43.34
2022-08-28T10:15:10.271Z,41.89
2022-08-28T10:17:40.168Z,42.87
2022-08-28T10:20:24.270Z,42.84
2022-08-28T10:23:03.120Z,44.18
2022-08-28T10:25:46.358Z,45.32
2022-08-28T10:28:39.122Z,47.58
2022-08-28T10:31:22.532Z,44.93
2022-08-28T10:33:51.836Z,45.27
2022-08-28T10:36:34.525Z,44.60
2022-08-28T10:39:13.921Z,42.05
2022-08-28T10:41:45.913Z,44.27
2022-08-28T10:44:19.931Z,44.40
2022-08-28T10:46:57.414Z,44.25
2022-08-28T10:49:31.700Z,44.35
2022-08-28T10:52:05.015Z,45.05
2022-08-28T10:54:55.106Z,45.67
2022-08-28T10:57:41.087Z,46.78
2022-08-28T11:00:19.786Z,44.21
2022-08-28T11:02:51.401Z,44.80
2022-08-28T11:05:28.668Z,47.36
2022-08-28T11:08:00.872Z,44.33
2022-08-28T11:10:34.986Z,43.08
2022-08-28T11:13:03.711Z,41.35
2022-08-28T11:15:36.745Z,40.99
2022-08-28T11:18:16.619Z,42.85
2022-08-28T11:20:56.141Z,42.37
2022-08-28T11:23:30.283Z,42.41
2022-08-28T11:26:03.930Z,42.49
2022-08-28T11:28:36.732Z,41.16
2022-08-28T11:31:06.343Z,40.71
2022-08-28T11:33:42.135Z,41.55
2022-08-28T11:36:20.680Z,39.27
2022-08-28T11:38:56.011Z,38.86
2022-08-28T11:41:23.158Z,37.66
2022-08-28T11:44:15.340Z,38.83
2022-08-28T11:46:50.666Z,40.82
2022-08-28T11:49:26.907Z,43.12
2022-08-28T11:52:24.434Z,41.96
2022-08-28T11:55:24.690Z,43.52
2022-08-28T12:00:49.525Z,41.95
2022-08-28T12:03:32.093Z,41.55
2022-08-28T12:06:00.651Z,41.24
2022-08-28T12:08:46.727Z,42.38
2022-08-28T12:11:41.420Z,42.13
2022-08-28T12:14:10.133Z,40.07
2022-08-28T12:17:21.584Z,40.40
2022-08-28T12:19:56.381Z,38.39
2022-08-28T12:22:26.587Z,39.17
2022-08-28T12:25:04.456Z,40.19
2022-08-28T12:27:32.010Z,38.38
2022-08-28T12:30:01.979Z,41.61
2022-08-28T12:32:41.527Z,39.41
2022-08-28T12:35:12.389Z,39.83
2022-08-28T12:37:54.151Z,39.25
2022-08-28T12:40:43.472Z,38.17
2022-08-28T12:43:15.398Z,39.92
2022-08-28T12:45:50.827Z,40.01
2022-08-28T12:48:52.835Z,38.74
2022-08-28T12:51:27.008Z,39.60
2022-08-28T12:53:56.269Z,36.14
2022-08-28T12:56:24.427Z,37.36
2022-08-28T12:58:51.441Z,39.92
2022-08-28T13:01:31.850Z,41.02
2022-08-28T13:04:04.807Z,38.54
2022-08-28T13:06:38.995Z,37.50
2022-08-28T13:09:14.103Z,37.47
2022-08-28T13:11:46.423Z,39.54
2022-08-28T13:14:12.970Z,38.51
2022-08-28T13:16:46.447Z,39.61
2022-08-28T13:19:27.780Z,37.72
2022-08-28T13:22:00.325Z,37.76
2022-08-28T13:24:30.853Z,37.56
2022-08-28T13:27:04.974Z,36.33
2022-08-28T13:29:32.408Z,36.85
2022-08-28T13:32:17.448Z,38.89
2022-08-28T13:35:09.470Z,40.79
2022-08-28T13:37:50.977Z,36.61
2022-08-28T13:40:55.734Z,36.81
2022-08-28T13:43:11.028Z,37.42
2022-08-28T13:45:42.652Z,36.85
2022-08-28T13:48:11.084Z,37.37
2022-08-28T13:50:40.129Z,35.02
2022-08-28T13:53:06.886Z,35.35
2022-08-28T13:55:34.985Z,35.68
2022-08-28T13:58:01.514Z,36.22
2022-08-28T14:00:31.434Z,36.98
2022-08-28T14:03:16.574Z,38.55
2022-08-28T14:05:44.500Z,39.34
2022-08-28T14:08:11.146Z,39.35
2022-08-28T14:10:37.697Z,41.78
2022-08-28T14:13:04.389Z,40.29
2022-08-28T14:15:30.898Z,41.29
2022-08-28T14:17:58.009Z,40.18
2022-08-28T14:20:24.807Z,39.52
2022-08-28T14:22:51.334Z,38.75
2022-08-28T14:25:18.058Z,38.20
2022-08-28T14:27:44.886Z,39.76
2022-08-28T14:30:11.675Z,38.12
2022-08-28T14:32:38.533Z,37.77
2022-08-28T14:35:05.912Z,38.59
2022-08-28T14:37:33.180Z,39.33
2022-08-28T14:39:59.733Z,37.48
2022-08-28T14:42:27.112Z,39.26
2022-08-28T14:44:53.981Z,38.22
2022-08-28T14:47:21.007Z,36.92
2022-08-28T14:49:47.790Z,36.66
2022-08-28T14:52:14.647Z,36.71
2022-08-28T14:54:41.193Z,34.99
2022-08-28T14:57:07.878Z,35.34
2022-08-28T14:59:34.520Z,34.87
2022-08-28T15:02:01.742Z,34.42
2022-08-28T15:04:34.863Z,35.95
2022-08-28T15:07:05.434Z,36.65
2022-08-28T15:09:35.148Z,35.61
2022-08-28T15:12:01.924Z,37.04
2022-08-28T15:14:28.488Z,36.09
2022-08-28T15:16:55.002Z,36.40
2022-08-28T15:19:23.314Z,36.90
2022-08-28T15:21:52.788Z,37.47
2022-08-28T15:24:22.879Z,36.18
2022-08-28T15:26:49.412Z,39.89
2022-08-28T15:29:16.549Z,36.35
2022-08-28T15:31:45.842Z,35.71
2022-08-28T15:34:16.182Z,36.41
2022-08-28T15:36:44.786Z,35.84
2022-08-28T15:39:44.859Z,35.45
2022-08-28T15:42:11.489Z,34.93
2022-08-28T15:44:38.943Z,34.10
2022-08-28T15:47:06.267Z,32.59
2022-08-28T15:49:43.592Z,32.20
2022-08-28T15:52:15.563Z,31.32
2022-08-28T15:54:42.732Z,30.37
2022-08-28T15:57:09.193Z,30.23
2022-08-28T15:59:48.698Z,30.62
2022-08-28T16:02:18.608Z,30.99
2022-08-28T16:04:45.282Z,31.29
2022-08-28T16:07:11.813Z,29.95
2022-08-28T16:09:38.480Z,30.86
2022-08-28T16:12:05.324Z,29.94
2022-08-28T16:14:33.077Z,30.49
2022-08-28T16:17:00.760Z,29.90
2022-08-28T16:19:32.640Z,28.00
2022-08-28T16:21:59.149Z,28.18
2022-08-28T16:24:25.697Z,29.25
2022-08-28T16:26:52.245Z,28.68
2022-08-28T16:29:18.901Z,29.70
2022-08-28T16:31:47.958Z,29.71
2022-08-28T16:34:15.692Z,28.91
2022-08-28T16:36:48.106Z,29.27
2022-08-28T16:39:14.692Z,29.39
2022-08-28T16:41:42.193Z,28.91
2022-08-28T16:44:08.832Z,29.40
2022-08-28T16:46:35.422Z,27.20
2022-08-28T16:49:02.532Z,27.06
2022-08-28T16:51:29.682Z,28.35
2022-08-28T16:53:56.448Z,27.94
2022-08-28T16:56:26.553Z,27.98
2022-08-28T16:58:53.502Z,28.90
2022-08-28T17:01:23.886Z,29.61
2022-08-28T17:03:51.962Z,32.72
2022-08-28T17:06:31.300Z,34.87
2022-08-28T17:08:58.385Z,37.96
2022-08-28T17:11:27.052Z,39.33
2022-08-28T17:13:53.759Z,38.84
2022-08-28T17:16:22.234Z,41.09
2022-08-28T17:18:52.394Z,39.32
2022-08-28T17:21:39.118Z,40.19
2022-08-28T17:24:06.736Z,37.16
2022-08-28T17:26:33.569Z,35.42
2022-08-28T17:29:00.111Z,34.47
2022-08-28T17:31:26.659Z,32.45
2022-08-28T17:33:53.241Z,32.57
2022-08-28T17:36:25.629Z,34.17
2022-08-28T17:39:05.590Z,38.73
2022-08-28T17:41:33.474Z,40.77
2022-08-28T17:44:00.721Z,42.11
2022-08-28T17:46:27.305Z,43.22
2022-08-28T17:48:55.486Z,44.03
2022-08-28T17:51:33.840Z,45.04
2022-08-28T17:54:10.009Z,45.13
2022-08-28T17:56:36.515Z,46.28
2022-08-28T17:59:03.216Z,46.47
2022-08-28T18:01:29.892Z,46.25
2022-08-28T18:03:56.450Z,46.37
2022-08-28T18:06:23.247Z,46.85
2022-08-28T18:08:52.022Z,46.98
2022-08-28T18:11:19.328Z,46.95
2022-08-28T18:13:46.473Z,46.28
2022-08-28T18:16:13.422Z,46.89
2022-08-28T18:18:40.515Z,47.49
2022-08-28T18:21:08.872Z,48.09
2022-08-28T18:23:35.449Z,48.47
2022-08-28T18:26:02.025Z,47.93
2022-08-28T18:28:28.720Z,48.94
2022-08-28T18:30:55.866Z,49.80
2022-08-28T18:33:24.401Z,49.54
2022-08-28T18:35:51.432Z,49.66
2022-08-28T18:38:20.541Z,48.78
2022-08-28T18:40:47.520Z,49.61
2022-08-28T18:43:14.100Z,49.88
2022-08-28T18:45:41.045Z,50.03
2022-08-28T18:48:10.405Z,50.14
2022-08-28T18:50:37.978Z,50.03
2022-08-28T18:53:05.422Z,50.91
2022-08-28T18:55:32.820Z,51.17
2022-08-28T18:58:01.705Z,52.86
2022-08-28T19:00:29.116Z,52.63
2022-08-28T19:02:55.991Z,53.36
2022-08-28T19:05:23.052Z,53.36
2022-08-28T19:07:50.466Z,54.12
2022-08-28T19:10:32.789Z,53.78
2022-08-28T19:13:01.231Z,54.13
2022-08-28T19:15:28.623Z,53.50
2022-08-28T19:17:55.521Z,53.58
2022-08-28T19:20:22.550Z,54.20
2022-08-28T19:22:49.118Z,53.67
2022-08-28T19:25:28.571Z,53.99
2022-08-28T19:27:59.337Z,54.70
2022-08-28T19:30:32.717Z,53.65
2022-08-28T19:33:01.162Z,53.93
2022-08-28T19:35:27.889Z,54.01
2022-08-28T19:37:54.693Z,54.13
2022-08-28T19:40:22.239Z,54.67
2022-08-28T19:42:50.191Z,53.92
2022-08-28T19:45:17.981Z,54.38
2022-08-28T19:47:44.860Z,55.11
2022-08-28T19:50:13.885Z,55.30
2022-08-28T19:52:41.420Z,55.26
2022-08-28T19:55:08.881Z,55.61
2022-08-28T19:57:35.547Z,55.52
2022-08-28T20:00:04.400Z,56.08
2022-08-28T20:02:31.057Z,55.51
2022-08-28T20:04:57.652Z,56.04
2022-08-28T20:07:24.982Z,56.53
2022-08-28T20:09:52.292Z,56.56
2022-08-28T20:12:19.660Z,56.73
2022-08-28T20:14:46.851Z,57.54
2022-08-28T20:17:14.083Z,57.39
2022-08-28T20:19:41.212Z,57.56
2022-08-28T20:22:07.938Z,58.11
2022-08-28T20:24:35.024Z,57.96
2022-08-28T20:27:01.553Z,58.11
2022-08-28T20:29:28.326Z,58.42
2022-08-28T20:31:54.939Z,58.57
2022-08-28T20:34:21.769Z,58.59
2022-08-28T20:36:49.016Z,58.54
2022-08-28T20:39:15.926Z,58.59
2022-08-28T20:41:44.324Z,58.44
2022-08-28T20:44:13.067Z,58.69
2022-08-28T20:46:41.969Z,58.81
2022-08-28T20:49:10.482Z,58.81
2022-08-28T20:51:55.559Z,58.88
2022-08-28T20:54:39.358Z,59.48
2022-08-28T20:57:09.404Z,59.37
2022-08-28T20:59:39.842Z,59.41
2022-08-28T21:02:16.651Z,59.64
2022-08-28T21:04:45.496Z,59.58
2022-08-28T21:07:13.901Z,60.15
2022-08-28T21:10:05.029Z,60.09
2022-08-28T21:12:27.579Z,60.14
2022-08-28T21:14:54.179Z,59.93
2022-08-28T21:17:29.785Z,60.67
2022-08-28T21:20:01.779Z,60.88
2022-08-28T21:22:31.325Z,60.72
2022-08-28T21:24:58.252Z,61.11
2022-08-28T21:27:24.992Z,61.28
2022-08-28T21:29:54.485Z,61.59
2022-08-28T21:32:21.087Z,61.52
2022-08-28T21:34:47.684Z,61.43
2022-08-28T21:37:15.349Z,62.04
2022-08-28T21:39:41.823Z,62.09
2022-08-28T21:42:08.454Z,62.53
2022-08-28T21:44:35.234Z,62.84
2022-08-28T21:47:01.727Z,62.82
2022-08-28T21:49:28.467Z,62.73
2022-08-28T21:51:54.967Z,62.54
2022-08-28T21:54:23.214Z,62.63
2022-08-28T21:56:50.602Z,62.55
2022-08-28T21:59:25.637Z,62.17
2022-08-28T22:01:57.392Z,62.19
2022-08-28T22:04:24.396Z,62.30
2022-08-28T22:06:50.877Z,62.85
2022-08-28T22:09:17.402Z,62.96
2022-08-28T22:11:44.053Z,62.52
2022-08-28T22:14:11.042Z,62.28
2022-08-28T22:16:37.627Z,62.77
2022-08-28T22:19:04.233Z,62.71
2022-08-28T22:21:50.527Z,63.10
2022-08-28T22:24:17.356Z,63.05
2022-08-28T22:26:44.105Z,62.98
2022-08-28T22:29:11.193Z,63.09
2022-08-28T22:31:45.456Z,63.44
2022-08-28T22:34:13.844Z,63.59
2022-08-28T22:36:40.337Z,63.72
2022-08-28T22:39:06.983Z,64.15
2022-08-28T22:41:33.657Z,64.15
2022-08-28T22:44:00.196Z,64.20
2022-08-28T22:46:27.838Z,63.89
2022-08-28T22:48:54.588Z,63.83
2022-08-28T22:51:21.124Z,64.27
2022-08-28T22:53:48.548Z,63.65
2022-08-28T22:56:17.102Z,63.35
2022-08-28T22:58:43.877Z,63.60
2022-08-28T23:01:19.570Z,64.28
2022-08-28T23:03:46.744Z,64.68
2022-08-28T23:06:13.905Z,64.69
2022-08-28T23:08:40.668Z,64.94
2022-08-28T23:11:07.246Z,64.76
2022-08-28T23:13:34.222Z,64.92
2022-08-28T23:16:01.476Z,64.85
2022-08-28T23:18:28.608Z,64.97
2022-08-28T23:20:55.632Z,64.63
2022-08-28T23:23:23.068Z,65.11
2022-08-28T23:25:50.505Z,64.88
2022-08-28T23:28:18.266Z,65.28
2022-08-28T23:30:49.746Z,65.18
2022-08-28T23:33:23.764Z,65.00
2022-08-28T23:35:51.440Z,65.23
2022-08-28T23:38:18.013Z,65.33
2022-08-28T23:40:44.569Z,65.39
2022-08-28T23:43:11.681Z,65.14
2022-08-28T23:45:42.390Z,65.06
2022-08-28T23:48:09.648Z,64.94
2022-08-28T23:50:39.801Z,65.45
2022-08-28T23:53:08.365Z,65.23
2022-08-28T23:55:35.949Z,65.06
2022-08-28T23:58:02.848Z,65.45
